createdAt,value
2018-09-12T00:01:31.983Z,18.30
2018-09-12T00:04:00.437Z,18.30
2018-09-12T00:06:28.844Z,18.30
2018-09-12T00:08:57.323Z,18.30
2018-09-12T00:11:25.961Z,18.30
2018-09-12T00:13:54.390Z,18.30
2018-09-12T00:16:22.800Z,18.20
2018-09-12T00:18:51.261Z,18.10
2018-09-12T00:21:19.696Z,18.10
2018-09-12T00:23:48.183Z,18.10
2018-09-12T00:26:16.621Z,18.00
2018-09-12T00:28:45.045Z,17.90
2018-09-12T00:31:13.468Z,17.80
2018-09-12T00:33:41.903Z,17.80
2018-09-12T00:36:10.351Z,17.80
2018-09-12T00:38:38.809Z,17.80
2018-09-12T00:41:07.356Z,17.80
2018-09-12T00:43:35.814Z,17.80
2018-09-12T00:46:04.247Z,17.80
2018-09-12T00:48:32.722Z,17.80
2018-09-12T00:51:01.155Z,17.80
2018-09-12T00:53:29.587Z,17.80
2018-09-12T00:55:58.028Z,17.80
2018-09-12T00:58:26.471Z,17.90
2018-09-12T01:00:54.929Z,17.80
2018-09-12T01:03:23.479Z,17.90
2018-09-12T01:05:51.952Z,17.90
2018-09-12T01:08:20.439Z,17.80
2018-09-12T01:10:48.935Z,17.80
2018-09-12T01:13:17.364Z,17.80
2018-09-12T01:15:45.790Z,17.70
2018-09-12T01:18:18.120Z,17.70
2018-09-12T01:20:47.150Z,17.70
2018-09-12T01:23:15.731Z,17.60
2018-09-12T01:25:44.287Z,17.50
2018-09-12T01:28:12.744Z,17.50
2018-09-12T01:30:41.211Z,17.50
2018-09-12T01:33:09.635Z,17.50
2018-09-12T01:35:38.254Z,17.50
2018-09-12T01:38:06.751Z,17.60
2018-09-12T01:40:35.214Z,17.50
2018-09-12T01:43:03.768Z,17.50
2018-09-12T01:45:32.212Z,17.50
2018-09-12T01:48:00.676Z,17.50
2018-09-12T01:50:29.145Z,17.40
2018-09-12T01:52:57.563Z,17.50
2018-09-12T01:55:25.994Z,17.40
2018-09-12T01:57:54.425Z,17.30
2018-09-12T02:00:27.087Z,17.40
2018-09-12T02:02:55.550Z,17.30
2018-09-12T02:05:24.003Z,17.30
2018-09-12T02:07:52.415Z,17.20
2018-09-12T02:10:20.839Z,17.30
2018-09-12T02:12:49.242Z,17.20
2018-09-12T02:15:17.851Z,17.20
2018-09-12T02:17:46.280Z,17.20
2018-09-12T02:20:14.710Z,17.20
2018-09-12T02:22:43.130Z,17.20
2018-09-12T02:25:11.584Z,17.20
2018-09-12T02:27:40.006Z,17.20
2018-09-12T02:30:08.565Z,17.30
2018-09-12T02:32:36.994Z,17.30
2018-09-12T02:35:05.491Z,17.30
2018-09-12T02:37:34.013Z,17.30
2018-09-12T02:40:02.437Z,17.20
2018-09-12T02:42:30.956Z,17.20
2018-09-12T02:44:59.367Z,17.20
2018-09-12T02:47:33.311Z,17.10
2018-09-12T02:50:01.738Z,17.10
2018-09-12T02:52:30.172Z,17.10
2018-09-12T02:54:58.584Z,17.10
2018-09-12T02:57:26.999Z,17.00
2018-09-12T02:59:55.402Z,17.00
2018-09-12T03:02:23.866Z,17.00
2018-09-12T03:04:53.192Z,16.90
2018-09-12T03:07:21.631Z,16.90
2018-09-12T03:09:50.041Z,16.90
2018-09-12T03:12:18.475Z,16.80
2018-09-12T03:14:46.900Z,16.70
2018-09-12T03:17:15.411Z,16.60
2018-09-12T03:19:43.843Z,16.60
2018-09-12T03:22:12.295Z,16.60
2018-09-12T03:24:40.735Z,16.60
2018-09-12T03:27:09.159Z,16.60
2018-09-12T03:29:37.572Z,16.60
2018-09-12T03:32:06.173Z,16.60
2018-09-12T03:34:34.584Z,16.60
2018-09-12T03:37:03.056Z,16.60
2018-09-12T03:39:31.454Z,16.50
2018-09-12T03:41:59.863Z,16.50
2018-09-12T03:44:28.292Z,16.50
2018-09-12T03:46:56.700Z,16.40
2018-09-12T03:49:25.131Z,16.30
2018-09-12T03:51:53.547Z,16.20
2018-09-12T03:54:21.972Z,16.20
2018-09-12T03:56:50.383Z,16.20
2018-09-12T03:59:18.831Z,16.10
2018-09-12T04:01:47.243Z,16.10
2018-09-12T04:04:15.691Z,16.10
2018-09-12T04:06:44.126Z,16.10
2018-09-12T04:09:12.557Z,16.10
2018-09-12T04:11:40.962Z,16.00
2018-09-12T04:14:09.444Z,16.00
2018-09-12T04:16:37.878Z,16.10
2018-09-12T04:19:06.342Z,16.20
2018-09-12T04:21:34.778Z,16.20
2018-09-12T04:24:03.290Z,16.00
2018-09-12T04:26:31.659Z,16.00
2018-09-12T04:29:00.086Z,16.00
2018-09-12T04:31:28.515Z,16.00
2018-09-12T04:33:56.933Z,16.00
2018-09-12T04:36:25.350Z,16.00
2018-09-12T04:38:53.824Z,15.90
2018-09-12T04:41:22.256Z,15.90
2018-09-12T04:43:50.712Z,15.90
2018-09-12T04:46:19.134Z,15.90
2018-09-12T04:48:47.672Z,15.90
2018-09-12T04:51:16.230Z,16.00
2018-09-12T04:53:44.671Z,15.90
2018-09-12T04:56:13.084Z,15.90
2018-09-12T04:58:41.528Z,15.90
2018-09-12T05:01:09.958Z,15.90
2018-09-12T05:03:38.381Z,15.90
2018-09-12T05:06:06.892Z,15.80
2018-09-12T05:08:35.311Z,15.90
2018-09-12T05:11:03.751Z,15.80
2018-09-12T05:13:32.159Z,15.80
2018-09-12T05:16:00.628Z,15.90
2018-09-12T05:18:29.149Z,16.00
2018-09-12T05:20:57.574Z,16.00
2018-09-12T05:23:26.006Z,16.10
2018-09-12T05:25:54.466Z,16.10
2018-09-12T05:28:22.879Z,16.10
2018-09-12T05:30:51.466Z,16.20
2018-09-12T05:33:19.894Z,16.20
2018-09-12T05:35:48.325Z,16.30
2018-09-12T05:38:16.835Z,16.30
2018-09-12T05:40:45.277Z,16.40
2018-09-12T05:43:13.695Z,16.50
2018-09-12T05:45:42.226Z,16.60
2018-09-12T05:48:10.638Z,16.70
2018-09-12T05:50:39.084Z,16.80
2018-09-12T05:53:07.502Z,16.90
2018-09-12T05:55:35.987Z,17.00
2018-09-12T05:58:04.483Z,17.00
2018-09-12T06:00:32.942Z,17.10
2018-09-12T06:03:01.375Z,17.10
2018-09-12T06:05:29.834Z,17.20
2018-09-12T06:07:58.262Z,17.20
2018-09-12T06:10:26.683Z,17.20
2018-09-12T06:12:55.112Z,17.30
2018-09-12T06:15:23.590Z,17.40
2018-09-12T06:17:52.015Z,17.40
2018-09-12T06:20:20.506Z,17.40
2018-09-12T06:22:48.951Z,17.60
2018-09-12T06:25:17.407Z,17.70
2018-09-12T06:27:45.875Z,17.80
2018-09-12T06:30:14.319Z,17.80
2018-09-12T06:32:42.758Z,17.90
2018-09-12T06:35:11.251Z,17.80
2018-09-12T06:37:39.846Z,17.80
2018-09-12T06:40:08.303Z,17.90
2018-09-12T06:42:36.731Z,18.00
2018-09-12T06:45:05.219Z,18.20
2018-09-12T06:47:33.698Z,18.20
2018-09-12T06:50:02.139Z,18.20
2018-09-12T06:52:30.566Z,18.30
2018-09-12T06:54:58.991Z,18.30
2018-09-12T06:57:27.438Z,18.50
2018-09-12T06:59:55.851Z,18.50
2018-09-12T07:02:24.410Z,18.70
2018-09-12T07:04:52.903Z,18.80
2018-09-12T07:07:21.421Z,18.80
2018-09-12T07:09:49.871Z,18.90
2018-09-12T07:12:18.322Z,18.90
2018-09-12T07:14:46.751Z,19.10
2018-09-12T07:17:15.219Z,19.20
2018-09-12T07:19:43.648Z,19.40
2018-09-12T07:22:12.083Z,19.60
2018-09-12T07:24:40.536Z,19.60
2018-09-12T07:27:08.963Z,19.80
2018-09-12T07:29:37.383Z,19.90
2018-09-12T07:32:05.873Z,20.00
2018-09-12T07:34:34.292Z,20.20
2018-09-12T07:37:02.769Z,20.10
2018-09-12T07:39:31.191Z,20.20
2018-09-12T07:41:59.652Z,20.30
2018-09-12T07:44:28.124Z,20.40
2018-09-12T07:46:56.596Z,20.50
2018-09-12T07:49:25.059Z,20.60
2018-09-12T07:51:53.494Z,20.70
2018-09-12T07:54:21.987Z,20.80
2018-09-12T07:56:50.411Z,20.80
2018-09-12T07:59:18.872Z,21.10
2018-09-12T08:01:47.324Z,21.20
2018-09-12T08:04:15.780Z,21.40
2018-09-12T08:06:44.229Z,21.40
2018-09-12T08:09:13.567Z,21.50
2018-09-12T08:11:42.539Z,21.50
2018-09-12T08:14:11.360Z,21.60
2018-09-12T08:16:40.647Z,21.80
2018-09-12T08:19:09.132Z,21.80
2018-09-12T08:21:37.551Z,22.00
2018-09-12T08:24:05.988Z,22.10
2018-09-12T08:26:34.429Z,22.20
2018-09-12T08:29:02.896Z,22.30
2018-09-12T08:31:31.360Z,22.40
2018-09-12T08:33:59.796Z,22.70
2018-09-12T08:36:28.322Z,22.80
2018-09-12T08:38:56.778Z,23.00
2018-09-12T08:41:25.188Z,23.10
2018-09-12T08:43:53.761Z,23.10
2018-09-12T08:46:22.204Z,23.30
2018-09-12T08:48:50.655Z,23.30
2018-09-12T08:51:19.084Z,23.40
2018-09-12T08:53:47.543Z,23.40
2018-09-12T08:56:15.982Z,23.60
2018-09-12T08:58:44.610Z,23.80
2018-09-12T09:01:13.111Z,23.80
2018-09-12T09:03:41.591Z,24.00
2018-09-12T09:06:10.040Z,24.20
2018-09-12T09:08:38.583Z,24.30
2018-09-12T09:11:07.073Z,24.50
2018-09-12T09:13:35.542Z,24.40
2018-09-12T09:16:03.987Z,24.50
2018-09-12T09:18:32.436Z,24.60
2018-09-12T09:21:01.927Z,24.70
2018-09-12T09:23:30.443Z,24.80
2018-09-12T09:25:58.863Z,25.00
2018-09-12T09:28:27.318Z,25.20
2018-09-12T09:30:55.755Z,25.10
2018-09-12T09:33:24.267Z,25.40
2018-09-12T09:35:52.720Z,25.60
2018-09-12T09:38:21.155Z,25.30
2018-09-12T09:40:49.575Z,25.50
2018-09-12T09:43:17.978Z,25.70
2018-09-12T09:45:46.438Z,25.80
2018-09-12T09:48:15.199Z,25.90
2018-09-12T09:50:43.560Z,26.00
2018-09-12T09:53:12.065Z,26.20
2018-09-12T09:55:40.504Z,26.30
2018-09-12T09:58:08.921Z,26.10
2018-09-12T10:00:42.854Z,26.30
2018-09-12T10:03:16.550Z,26.50
2018-09-12T10:05:50.377Z,26.80
2018-09-12T10:08:24.067Z,26.90
2018-09-12T10:10:52.539Z,26.90
2018-09-12T10:13:20.945Z,27.00
2018-09-12T10:15:49.392Z,27.10
2018-09-12T10:18:17.827Z,27.10
2018-09-12T10:20:46.251Z,27.30
2018-09-12T10:23:14.646Z,27.40
2018-09-12T10:25:43.138Z,27.50
2018-09-12T10:28:11.651Z,27.70
2018-09-12T10:30:40.130Z,27.80
2018-09-12T10:33:08.595Z,27.80
2018-09-12T10:35:37.077Z,27.80
2018-09-12T10:38:05.607Z,27.70
2018-09-12T10:40:34.038Z,27.90
2018-09-12T10:43:02.479Z,28.00
2018-09-12T10:45:30.918Z,28.20
2018-09-12T10:47:59.335Z,28.20
2018-09-12T10:50:27.765Z,28.10
2018-09-12T10:52:56.179Z,28.00
2018-09-12T10:55:24.628Z,28.10
2018-09-12T10:57:53.053Z,28.20
2018-09-12T11:00:21.590Z,28.30
2018-09-12T11:02:50.016Z,28.20
2018-09-12T11:05:18.475Z,28.40
2018-09-12T11:07:46.899Z,28.50
2018-09-12T11:10:15.334Z,28.40
2018-09-12T11:12:44.051Z,28.40
2018-09-12T11:15:12.479Z,28.40
2018-09-12T11:17:40.925Z,28.60
2018-09-12T11:20:09.358Z,28.70
2018-09-12T11:22:37.838Z,28.80
2018-09-12T11:25:06.303Z,28.80
2018-09-12T11:27:34.735Z,28.80
2018-09-12T11:30:03.207Z,29.00
2018-09-12T11:32:31.641Z,29.10
2018-09-12T11:35:00.058Z,28.90
2018-09-12T11:37:28.517Z,29.00
2018-09-12T11:39:56.964Z,29.10
2018-09-12T11:42:25.426Z,29.20
2018-09-12T11:44:53.819Z,29.10
2018-09-12T11:47:22.587Z,29.50
2018-09-12T11:49:50.995Z,29.60
2018-09-12T11:52:19.414Z,29.60
2018-09-12T11:54:47.807Z,29.80
2018-09-12T11:57:16.227Z,29.70
2018-09-12T11:59:44.635Z,29.80
2018-09-12T12:02:13.138Z,29.60
2018-09-12T12:04:41.566Z,29.90
2018-09-12T12:07:10.081Z,30.10
2018-09-12T12:09:38.549Z,30.20
2018-09-12T12:12:07.039Z,30.00
2018-09-12T12:14:35.467Z,29.90
2018-09-12T12:17:03.920Z,29.90
2018-09-12T12:19:32.341Z,30.00
2018-09-12T12:22:00.758Z,29.90
2018-09-12T12:24:29.225Z,30.00
2018-09-12T12:26:57.638Z,30.10
2018-09-12T12:29:26.039Z,30.20
2018-09-12T12:31:54.464Z,30.20
2018-09-12T12:34:22.891Z,30.30
2018-09-12T12:36:51.288Z,30.20
2018-09-12T12:39:19.735Z,30.10
2018-09-12T12:41:48.149Z,30.30
2018-09-12T12:44:16.596Z,30.20
2018-09-12T12:46:45.011Z,30.10
2018-09-12T12:49:13.432Z,29.90
2018-09-12T12:51:41.851Z,29.90
2018-09-12T12:54:10.292Z,30.10
2018-09-12T12:56:38.695Z,30.40
2018-09-12T12:59:07.179Z,30.40
2018-09-12T13:01:35.616Z,30.50
2018-09-12T13:04:04.071Z,30.20
2018-09-12T13:06:32.543Z,30.20
2018-09-12T13:09:01.238Z,30.10
2018-09-12T13:11:29.768Z,30.20
2018-09-12T13:13:58.211Z,30.10
2018-09-12T13:16:26.705Z,30.00
2018-09-12T13:18:55.174Z,30.10
2018-09-12T13:21:23.678Z,30.20
2018-09-12T13:23:52.024Z,30.40
2018-09-12T13:26:20.434Z,30.50
2018-09-12T13:28:48.860Z,30.50
2018-09-12T13:31:17.311Z,30.50
2018-09-12T13:33:45.774Z,30.50
2018-09-12T13:36:14.198Z,30.50
2018-09-12T13:38:42.663Z,30.50
2018-09-12T13:41:11.100Z,30.40
2018-09-12T13:43:39.527Z,30.40
2018-09-12T13:46:07.967Z,30.50
2018-09-12T13:48:36.401Z,30.40
2018-09-12T13:51:04.835Z,30.40
2018-09-12T13:53:33.259Z,30.40
2018-09-12T13:56:02.684Z,30.30
2018-09-12T13:58:31.136Z,30.40
2018-09-12T14:00:59.538Z,30.40
2018-09-12T14:03:27.964Z,30.50
2018-09-12T14:05:56.376Z,30.70
2018-09-12T14:08:24.816Z,30.60
2018-09-12T14:10:53.228Z,30.60
2018-09-12T14:13:21.666Z,30.70
2018-09-12T14:15:50.162Z,30.50
2018-09-12T14:18:18.630Z,30.40
2018-09-12T14:20:47.059Z,30.30
2018-09-12T14:23:15.510Z,30.20
2018-09-12T14:25:43.927Z,30.00
2018-09-12T14:28:12.360Z,29.90
2018-09-12T14:30:40.789Z,29.90
2018-09-12T14:33:09.208Z,29.90
2018-09-12T14:35:37.650Z,30.00
2018-09-12T14:38:06.092Z,30.10
2018-09-12T14:40:34.516Z,30.20
2018-09-12T14:43:02.933Z,30.30
2018-09-12T14:45:31.523Z,30.30
2018-09-12T14:48:00.041Z,30.20
2018-09-12T14:50:28.471Z,30.10
2018-09-12T14:52:56.884Z,29.90
2018-09-12T14:55:25.317Z,30.00
2018-09-12T14:57:53.733Z,30.00
2018-09-12T15:00:30.743Z,30.00
2018-09-12T15:02:59.809Z,29.90
2018-09-12T15:05:28.250Z,29.90
2018-09-12T15:07:57.368Z,29.80
2018-09-12T15:10:26.368Z,29.90
2018-09-12T15:12:54.864Z,29.80
2018-09-12T15:15:23.294Z,29.90
2018-09-12T15:17:51.713Z,29.80
2018-09-12T15:20:20.184Z,29.80
2018-09-12T15:22:48.994Z,29.80
2018-09-12T15:25:17.419Z,29.90
2018-09-12T15:27:45.858Z,30.00
2018-09-12T15:30:14.300Z,30.00
2018-09-12T15:32:42.729Z,29.90
2018-09-12T15:35:11.180Z,30.00
2018-09-12T15:37:39.616Z,29.90
2018-09-12T15:40:08.090Z,29.80
2018-09-12T15:42:36.512Z,29.70
2018-09-12T15:45:05.019Z,29.70
2018-09-12T15:47:33.529Z,29.70
2018-09-12T15:50:01.963Z,29.70
2018-09-12T15:52:30.389Z,29.70
2018-09-12T15:54:58.827Z,29.80
2018-09-12T15:57:27.250Z,29.70
2018-09-12T15:59:55.737Z,29.70
2018-09-12T16:02:24.167Z,29.60
2018-09-12T16:04:52.564Z,29.60
2018-09-12T16:07:20.990Z,29.60
2018-09-12T16:09:49.384Z,29.50
2018-09-12T16:12:17.849Z,29.40
2018-09-12T16:14:46.270Z,29.30
2018-09-12T16:17:14.709Z,29.20
2018-09-12T16:19:43.152Z,29.20
2018-09-12T16:22:11.631Z,29.10
2018-09-12T16:24:40.113Z,29.10
2018-09-12T16:27:08.635Z,29.10
2018-09-12T16:29:37.026Z,29.10
2018-09-12T16:32:05.510Z,29.00
2018-09-12T16:34:33.915Z,28.90
2018-09-12T16:37:02.388Z,28.90
2018-09-12T16:39:30.815Z,29.00
2018-09-12T16:41:59.278Z,28.90
2018-09-12T16:44:27.698Z,28.80
2018-09-12T16:46:56.130Z,28.80
2018-09-12T16:49:24.557Z,28.80
2018-09-12T16:51:52.982Z,28.80
2018-09-12T16:54:21.411Z,28.70
2018-09-12T16:56:49.901Z,28.70
2018-09-12T16:59:18.294Z,28.60
2018-09-12T17:01:46.766Z,28.40
2018-09-12T17:04:15.235Z,28.30
2018-09-12T17:06:43.692Z,28.20
2018-09-12T17:09:12.439Z,28.10
2018-09-12T17:11:40.899Z,28.10
2018-09-12T17:14:09.332Z,28.00
2018-09-12T17:16:37.795Z,28.00
2018-09-12T17:19:06.262Z,27.80
2018-09-12T17:21:41.025Z,27.70
2018-09-12T17:24:09.450Z,27.60
2018-09-12T17:26:37.912Z,27.50
2018-09-12T17:29:06.347Z,27.40
2018-09-12T17:31:34.800Z,27.30
2018-09-12T17:34:03.275Z,27.20
2018-09-12T17:36:31.762Z,27.10
2018-09-12T17:39:00.399Z,27.00
2018-09-12T17:41:28.830Z,27.00
2018-09-12T17:43:57.253Z,26.90
2018-09-12T17:46:25.691Z,26.80
2018-09-12T17:48:54.106Z,26.70
2018-09-12T17:51:22.521Z,26.60
2018-09-12T17:53:50.999Z,26.50
2018-09-12T17:56:19.402Z,26.40
2018-09-12T17:58:47.826Z,26.40
2018-09-12T18:01:16.246Z,26.20
2018-09-12T18:03:44.692Z,26.20
2018-09-12T18:06:13.113Z,26.20
2018-09-12T18:08:41.550Z,26.10
2018-09-12T18:11:10.021Z,26.10
2018-09-12T18:13:38.471Z,25.90
2018-09-12T18:16:06.903Z,25.80
2018-09-12T18:18:35.336Z,25.70
2018-09-12T18:21:03.812Z,25.60
2018-09-12T18:23:32.582Z,25.50
2018-09-12T18:26:01.060Z,25.40
2018-09-12T18:28:29.527Z,25.30
2018-09-12T18:30:58.172Z,25.20
2018-09-12T18:33:26.646Z,25.20
2018-09-12T18:35:55.113Z,25.20
2018-09-12T18:38:23.680Z,25.30
2018-09-12T18:40:52.221Z,25.20
2018-09-12T18:43:21.651Z,25.20
2018-09-12T18:45:50.178Z,25.10
2018-09-12T18:48:18.611Z,25.00
2018-09-12T18:50:47.019Z,24.90
2018-09-12T18:53:15.440Z,24.80
2018-09-12T18:55:43.892Z,24.80
2018-09-12T18:58:12.336Z,24.60
2018-09-12T19:00:40.762Z,24.60
2018-09-12T19:03:09.208Z,24.50
2018-09-12T19:05:37.627Z,24.50
2018-09-12T19:08:06.091Z,24.40
2018-09-12T19:10:34.519Z,24.40
2018-09-12T19:13:02.927Z,24.40
2018-09-12T19:15:31.370Z,24.40
2018-09-12T19:18:00.041Z,24.40
2018-09-12T19:20:28.514Z,24.40
2018-09-12T19:22:56.919Z,24.40
2018-09-12T19:25:25.360Z,24.30
2018-09-12T19:27:53.767Z,24.20
2018-09-12T19:30:22.199Z,24.10
2018-09-12T19:32:50.615Z,24.10
2018-09-12T19:35:19.048Z,24.10
2018-09-12T19:37:47.473Z,24.00
2018-09-12T19:40:15.927Z,24.10
2018-09-12T19:42:44.347Z,24.10
2018-09-12T19:45:12.815Z,24.10
2018-09-12T19:47:41.249Z,24.10
2018-09-12T19:50:09.702Z,24.10
2018-09-12T19:52:38.126Z,24.10
2018-09-12T19:55:06.627Z,24.10
2018-09-12T19:57:35.049Z,24.10
2018-09-12T20:00:03.603Z,24.00
2018-09-12T20:02:33.518Z,24.00
2018-09-12T20:05:01.999Z,23.90
2018-09-12T20:07:31.779Z,23.90
2018-09-12T20:10:00.245Z,23.90
2018-09-12T20:12:28.660Z,23.90
2018-09-12T20:14:57.104Z,23.80
2018-09-12T20:17:25.523Z,23.90
2018-09-12T20:19:53.991Z,23.80
2018-09-12T20:22:22.432Z,23.90
2018-09-12T20:24:50.838Z,23.80
2018-09-12T20:27:19.267Z,23.80
2018-09-12T20:29:47.953Z,23.90
2018-09-12T20:32:16.555Z,24.00
2018-09-12T20:34:44.967Z,24.00
2018-09-12T20:37:14.129Z,24.00
2018-09-12T20:39:42.543Z,23.90
2018-09-12T20:42:10.971Z,23.90
2018-09-12T20:44:39.872Z,23.90
2018-09-12T20:47:08.303Z,23.90
2018-09-12T20:49:36.707Z,23.80
2018-09-12T20:52:05.141Z,23.40
2018-09-12T20:54:33.546Z,23.10
2018-09-12T20:57:02.007Z,22.90
2018-09-12T20:59:30.440Z,22.70
2018-09-12T21:01:58.914Z,22.50
2018-09-12T21:04:27.340Z,22.30
2018-09-12T21:06:55.755Z,22.20
2018-09-12T21:09:24.162Z,21.90
2018-09-12T21:11:52.604Z,21.80
2018-09-12T21:14:21.016Z,21.80
2018-09-12T21:16:49.447Z,21.70
2018-09-12T21:19:17.858Z,21.60
2018-09-12T21:21:46.309Z,21.60
2018-09-12T21:24:14.720Z,21.60
2018-09-12T21:26:43.157Z,21.60
2018-09-12T21:29:11.564Z,21.50
2018-09-12T21:31:40.002Z,21.60
2018-09-12T21:34:08.487Z,21.50
2018-09-12T21:36:36.938Z,21.50
2018-09-12T21:39:08.374Z,21.40
2018-09-12T21:41:36.864Z,21.40
2018-09-12T21:44:05.298Z,21.40
2018-09-12T21:46:33.779Z,21.40
2018-09-12T21:49:02.285Z,21.40
2018-09-12T21:51:30.720Z,21.40
2018-09-12T21:53:59.154Z,21.40
2018-09-12T21:56:27.582Z,21.40
2018-09-12T21:58:56.013Z,21.40
2018-09-12T22:01:25.251Z,21.40
2018-09-12T22:03:54.476Z,21.40
2018-09-12T22:06:23.651Z,21.20
2018-09-12T22:08:52.112Z,21.20
2018-09-12T22:11:20.931Z,21.20
2018-09-12T22:13:49.550Z,21.10
2018-09-12T22:16:17.971Z,21.00
2018-09-12T22:18:46.444Z,21.00
2018-09-12T22:21:14.879Z,21.00
2018-09-12T22:23:43.307Z,21.00
2018-09-12T22:26:11.720Z,21.00
2018-09-12T22:28:40.483Z,21.00
2018-09-12T22:31:08.886Z,21.10
2018-09-12T22:33:37.315Z,21.00
2018-09-12T22:36:05.741Z,20.90
2018-09-12T22:38:34.201Z,20.90
2018-09-12T22:41:02.598Z,20.90
2018-09-12T22:43:31.067Z,20.80
2018-09-12T22:45:59.484Z,20.70
2018-09-12T22:48:27.955Z,20.60
2018-09-12T22:50:56.380Z,20.50
2018-09-12T22:53:24.806Z,20.50
2018-09-12T22:55:53.242Z,20.40
2018-09-12T22:58:21.754Z,20.40
2018-09-12T23:00:50.196Z,20.40
2018-09-12T23:03:18.639Z,20.40
2018-09-12T23:05:47.053Z,20.40
2018-09-12T23:08:15.490Z,20.30
2018-09-12T23:10:43.928Z,20.30
2018-09-12T23:13:12.366Z,20.40
2018-09-12T23:15:40.810Z,20.30
2018-09-12T23:18:09.227Z,20.20
2018-09-12T23:20:37.876Z,20.20
2018-09-12T23:23:06.659Z,20.10
2018-09-12T23:25:35.103Z,20.10
2018-09-12T23:28:03.535Z,20.00
2018-09-12T23:30:31.974Z,19.90
2018-09-12T23:33:00.395Z,19.90
2018-09-12T23:35:28.827Z,19.90
2018-09-12T23:37:57.280Z,19.90
2018-09-12T23:40:25.740Z,19.90
2018-09-12T23:42:54.167Z,19.90
2018-09-12T23:45:22.600Z,19.80
2018-09-12T23:47:51.035Z,19.70
2018-09-12T23:50:19.487Z,19.70
2018-09-12T23:52:47.922Z,19.60
2018-09-12T23:55:16.382Z,19.60
2018-09-12T23:57:44.821Z,19.60
